Preview of NWS' New Version of Forecast
This preview is not operational and should not be used for support decisions.

Terminal Aerodrome Forecast (TAF)

Issued by National Weather Service (NWS)

                            
264 
FTUS42 KKEY 270447 AAA
TAFMTH
TAF AMD
KMTH 270447Z 2705/2724 13018G28KT P6SM -RA VCSH SCT020 BKN030
      TEMPO 2705/2706 1SM +TSRA BKN010CB OVC025
     FM270900 18026G35KT 5SM -RA VCSH SCT012 OVC025
     FM271500 17018G25KT P6SM VCSH SCT015 BKN050=